sensor_id;sensor_type;location;lat;lon;timestamp;P1;durP1;ratioP1;P2;durP2;ratioP2
19521;SDS011;9905;52.126;5.596;2023-11-21T00:02:06;40.90;;;37.58;;
19521;SDS011;9905;52.126;5.596;2023-11-21T00:04:33;40.80;;;37.92;;
19521;SDS011;9905;52.126;5.596;2023-11-21T00:07:01;39.15;;;36.28;;
19521;SDS011;9905;52.126;5.596;2023-11-21T00:09:28;38.03;;;35.25;;
19521;SDS011;9905;52.126;5.596;2023-11-21T00:11:55;41.60;;;38.10;;
19521;SDS011;9905;52.126;5.596;2023-11-21T00:14:21;39.58;;;36.80;;
19521;SDS011;9905;52.126;5.596;2023-11-21T00:16:48;39.78;;;36.88;;
19521;SDS011;9905;52.126;5.596;2023-11-21T00:19:15;40.05;;;37.15;;
19521;SDS011;9905;52.126;5.596;2023-11-21T00:21:41;41.58;;;38.40;;
19521;SDS011;9905;52.126;5.596;2023-11-21T00:24:11;41.25;;;38.30;;
19521;SDS011;9905;52.126;5.596;2023-11-21T00:26:39;39.38;;;36.40;;
19521;SDS011;9905;52.126;5.596;2023-11-21T00:29:06;42.92;;;39.33;;
19521;SDS011;9905;52.126;5.596;2023-11-21T00:31:33;40.55;;;37.40;;
19521;SDS011;9905;52.126;5.596;2023-11-21T00:34:01;42.17;;;38.97;;
19521;SDS011;9905;52.126;5.596;2023-11-21T00:36:30;41.45;;;38.30;;
19521;SDS011;9905;52.126;5.596;2023-11-21T00:38:57;41.03;;;38.20;;
19521;SDS011;9905;52.126;5.596;2023-11-21T00:41:25;41.15;;;38.00;;
19521;SDS011;9905;52.126;5.596;2023-11-21T00:43:53;39.60;;;36.80;;
19521;SDS011;9905;52.126;5.596;2023-11-21T00:46:20;42.15;;;38.95;;
19521;SDS011;9905;52.126;5.596;2023-11-21T00:48:46;43.88;;;40.28;;
19521;SDS011;9905;52.126;5.596;2023-11-21T00:51:13;40.90;;;37.83;;
19521;SDS011;9905;52.126;5.596;2023-11-21T00:53:40;41.53;;;38.25;;
19521;SDS011;9905;52.126;5.596;2023-11-21T00:56:07;42.05;;;39.17;;
19521;SDS011;9905;52.126;5.596;2023-11-21T00:58:35;43.22;;;39.67;;
19521;SDS011;9905;52.126;5.596;2023-11-21T01:01:02;41.38;;;38.28;;
19521;SDS011;9905;52.126;5.596;2023-11-21T01:03:29;41.65;;;38.53;;
19521;SDS011;9905;52.126;5.596;2023-11-21T01:05:55;41.55;;;38.20;;
19521;SDS011;9905;52.126;5.596;2023-11-21T01:08:22;41.15;;;37.97;;
19521;SDS011;9905;52.126;5.596;2023-11-21T01:10:50;41.80;;;38.65;;
19521;SDS011;9905;52.126;5.596;2023-11-21T01:13:17;44.13;;;40.67;;
19521;SDS011;9905;52.126;5.596;2023-11-21T01:15:45;41.83;;;38.90;;
19521;SDS011;9905;52.126;5.596;2023-11-21T01:18:12;43.67;;;40.40;;
19521;SDS011;9905;52.126;5.596;2023-11-21T01:20:38;43.17;;;39.55;;
19521;SDS011;9905;52.126;5.596;2023-11-21T01:23:05;44.63;;;41.17;;
19521;SDS011;9905;52.126;5.596;2023-11-21T01:25:32;44.03;;;40.65;;
19521;SDS011;9905;52.126;5.596;2023-11-21T01:27:59;43.38;;;40.17;;
19521;SDS011;9905;52.126;5.596;2023-11-21T01:30:26;47.47;;;43.08;;
19521;SDS011;9905;52.126;5.596;2023-11-21T01:32:54;44.55;;;40.88;;
19521;SDS011;9905;52.126;5.596;2023-11-21T01:35:21;45.47;;;42.00;;
19521;SDS011;9905;52.126;5.596;2023-11-21T01:37:48;44.72;;;40.90;;
19521;SDS011;9905;52.126;5.596;2023-11-21T01:40:15;43.38;;;40.10;;
19521;SDS011;9905;52.126;5.596;2023-11-21T01:42:42;45.22;;;41.67;;
19521;SDS011;9905;52.126;5.596;2023-11-21T01:45:11;44.28;;;40.88;;
19521;SDS011;9905;52.126;5.596;2023-11-21T01:47:39;44.05;;;40.35;;
19521;SDS011;9905;52.126;5.596;2023-11-21T01:50:11;46.38;;;43.10;;
19521;SDS011;9905;52.126;5.596;2023-11-21T01:52:42;45.30;;;41.63;;
19521;SDS011;9905;52.126;5.596;2023-11-21T01:55:10;46.75;;;42.97;;
19521;SDS011;9905;52.126;5.596;2023-11-21T01:57:37;48.25;;;44.17;;
19521;SDS011;9905;52.126;5.596;2023-11-21T02:00:05;46.25;;;42.58;;
19521;SDS011;9905;52.126;5.596;2023-11-21T02:02:40;46.15;;;42.42;;
19521;SDS011;9905;52.126;5.596;2023-11-21T02:05:10;47.63;;;43.63;;
19521;SDS011;9905;52.126;5.596;2023-11-21T02:07:37;45.58;;;41.92;;
19521;SDS011;9905;52.126;5.596;2023-11-21T02:10:05;47.45;;;43.42;;
19521;SDS011;9905;52.126;5.596;2023-11-21T02:12:32;46.90;;;43.00;;
19521;SDS011;9905;52.126;5.596;2023-11-21T02:15:00;47.55;;;43.80;;
19521;SDS011;9905;52.126;5.596;2023-11-21T02:17:27;47.13;;;43.33;;
19521;SDS011;9905;52.126;5.596;2023-11-21T02:19:53;47.95;;;44.15;;
19521;SDS011;9905;52.126;5.596;2023-11-21T02:22:22;46.47;;;42.70;;
19521;SDS011;9905;52.126;5.596;2023-11-21T02:24:52;48.25;;;44.45;;
19521;SDS011;9905;52.126;5.596;2023-11-21T02:27:19;47.55;;;43.72;;
19521;SDS011;9905;52.126;5.596;2023-11-21T02:29:48;47.47;;;43.92;;
19521;SDS011;9905;52.126;5.596;2023-11-21T02:32:15;47.25;;;43.67;;
19521;SDS011;9905;52.126;5.596;2023-11-21T02:34:44;47.45;;;43.20;;
19521;SDS011;9905;52.126;5.596;2023-11-21T02:37:11;46.33;;;42.75;;
19521;SDS011;9905;52.126;5.596;2023-11-21T02:39:37;46.85;;;43.20;;
19521;SDS011;9905;52.126;5.596;2023-11-21T02:42:06;46.45;;;42.67;;
19521;SDS011;9905;52.126;5.596;2023-11-21T02:44:33;47.17;;;43.47;;
19521;SDS011;9905;52.126;5.596;2023-11-21T02:46:59;48.25;;;44.63;;
19521;SDS011;9905;52.126;5.596;2023-11-21T02:49:26;47.50;;;43.78;;
19521;SDS011;9905;52.126;5.596;2023-11-21T02:51:53;46.88;;;43.10;;
19521;SDS011;9905;52.126;5.596;2023-11-21T02:54:20;48.20;;;44.25;;
19521;SDS011;9905;52.126;5.596;2023-11-21T02:56:48;46.97;;;43.38;;
19521;SDS011;9905;52.126;5.596;2023-11-21T02:59:16;46.50;;;42.90;;
19521;SDS011;9905;52.126;5.596;2023-11-21T03:01:42;46.17;;;42.42;;
19521;SDS011;9905;52.126;5.596;2023-11-21T03:04:09;46.00;;;42.40;;
19521;SDS011;9905;52.126;5.596;2023-11-21T03:06:36;44.28;;;40.60;;
19521;SDS011;9905;52.126;5.596;2023-11-21T03:09:03;46.22;;;43.03;;
19521;SDS011;9905;52.126;5.596;2023-11-21T03:11:31;45.83;;;42.30;;
19521;SDS011;9905;52.126;5.596;2023-11-21T03:13:58;45.40;;;41.90;;
19521;SDS011;9905;52.126;5.596;2023-11-21T03:16:26;44.92;;;41.70;;
19521;SDS011;9905;52.126;5.596;2023-11-21T03:18:54;45.72;;;42.42;;
19521;SDS011;9905;52.126;5.596;2023-11-21T03:21:20;45.60;;;41.95;;
19521;SDS011;9905;52.126;5.596;2023-11-21T03:23:47;45.22;;;41.80;;
19521;SDS011;9905;52.126;5.596;2023-11-21T03:26:14;45.67;;;42.38;;
19521;SDS011;9905;52.126;5.596;2023-11-21T03:28:41;46.03;;;42.40;;
19521;SDS011;9905;52.126;5.596;2023-11-21T03:31:08;47.50;;;43.67;;
19521;SDS011;9905;52.126;5.596;2023-11-21T03:33:37;45.78;;;42.50;;
19521;SDS011;9905;52.126;5.596;2023-11-21T03:36:03;44.20;;;41.00;;
19521;SDS011;9905;52.126;5.596;2023-11-21T03:38:32;46.15;;;42.83;;
19521;SDS011;9905;52.126;5.596;2023-11-21T03:40:59;45.50;;;42.08;;
19521;SDS011;9905;52.126;5.596;2023-11-21T03:43:26;45.33;;;41.58;;
19521;SDS011;9905;52.126;5.596;2023-11-21T03:45:53;46.03;;;42.53;;
19521;SDS011;9905;52.126;5.596;2023-11-21T03:48:19;46.10;;;42.83;;
19521;SDS011;9905;52.126;5.596;2023-11-21T03:50:47;45.40;;;42.03;;
19521;SDS011;9905;52.126;5.596;2023-11-21T03:53:14;45.63;;;42.15;;
19521;SDS011;9905;52.126;5.596;2023-11-21T03:55:41;43.67;;;40.40;;
19521;SDS011;9905;52.126;5.596;2023-11-21T03:58:08;46.13;;;42.67;;
19521;SDS011;9905;52.126;5.596;2023-11-21T04:00:35;47.65;;;44.03;;
19521;SDS011;9905;52.126;5.596;2023-11-21T04:03:01;46.20;;;42.95;;
19521;SDS011;9905;52.126;5.596;2023-11-21T04:05:29;46.50;;;42.67;;
19521;SDS011;9905;52.126;5.596;2023-11-21T04:07:58;46.28;;;42.75;;
19521;SDS011;9905;52.126;5.596;2023-11-21T04:10:25;45.45;;;42.08;;
19521;SDS011;9905;52.126;5.596;2023-11-21T04:12:51;43.22;;;40.20;;
19521;SDS011;9905;52.126;5.596;2023-11-21T04:15:18;43.58;;;40.25;;
19521;SDS011;9905;52.126;5.596;2023-11-21T04:17:45;43.85;;;40.78;;
19521;SDS011;9905;52.126;5.596;2023-11-21T04:20:11;45.25;;;41.28;;
19521;SDS011;9905;52.126;5.596;2023-11-21T04:22:38;44.38;;;41.08;;
19521;SDS011;9905;52.126;5.596;2023-11-21T04:25:10;45.92;;;42.33;;
19521;SDS011;9905;52.126;5.596;2023-11-21T04:27:38;46.30;;;42.65;;
19521;SDS011;9905;52.126;5.596;2023-11-21T04:30:05;44.90;;;40.80;;
19521;SDS011;9905;52.126;5.596;2023-11-21T04:32:34;45.63;;;42.22;;
19521;SDS011;9905;52.126;5.596;2023-11-21T04:35:00;44.20;;;40.90;;
19521;SDS011;9905;52.126;5.596;2023-11-21T04:37:29;46.55;;;43.00;;
19521;SDS011;9905;52.126;5.596;2023-11-21T04:39:55;45.50;;;42.10;;
19521;SDS011;9905;52.126;5.596;2023-11-21T04:42:23;43.75;;;40.40;;
19521;SDS011;9905;52.126;5.596;2023-11-21T04:44:50;44.08;;;40.88;;
19521;SDS011;9905;52.126;5.596;2023-11-21T04:47:17;44.10;;;40.97;;
19521;SDS011;9905;52.126;5.596;2023-11-21T04:49:45;45.83;;;42.35;;
19521;SDS011;9905;52.126;5.596;2023-11-21T04:52:13;45.45;;;41.97;;
19521;SDS011;9905;52.126;5.596;2023-11-21T04:54:39;43.63;;;40.58;;
19521;SDS011;9905;52.126;5.596;2023-11-21T04:57:06;47.25;;;43.55;;
19521;SDS011;9905;52.126;5.596;2023-11-21T04:59:34;45.72;;;42.33;;
19521;SDS011;9905;52.126;5.596;2023-11-21T05:02:01;44.10;;;40.70;;
19521;SDS011;9905;52.126;5.596;2023-11-21T05:04:28;44.78;;;41.03;;
19521;SDS011;9905;52.126;5.596;2023-11-21T05:06:54;48.00;;;44.22;;
19521;SDS011;9905;52.126;5.596;2023-11-21T05:09:21;47.78;;;44.03;;
19521;SDS011;9905;52.126;5.596;2023-11-21T05:11:48;47.47;;;43.95;;
19521;SDS011;9905;52.126;5.596;2023-11-21T05:14:15;46.90;;;43.17;;
19521;SDS011;9905;52.126;5.596;2023-11-21T05:16:43;47.67;;;43.83;;
19521;SDS011;9905;52.126;5.596;2023-11-21T05:19:10;46.45;;;42.50;;
19521;SDS011;9905;52.126;5.596;2023-11-21T05:21:38;47.47;;;43.92;;
19521;SDS011;9905;52.126;5.596;2023-11-21T05:24:05;46.47;;;43.15;;
19521;SDS011;9905;52.126;5.596;2023-11-21T05:26:32;45.78;;;42.20;;
19521;SDS011;9905;52.126;5.596;2023-11-21T05:28:59;48.08;;;44.00;;
19521;SDS011;9905;52.126;5.596;2023-11-21T05:31:26;46.38;;;42.70;;
19521;SDS011;9905;52.126;5.596;2023-11-21T05:33:54;47.35;;;43.47;;
19521;SDS011;9905;52.126;5.596;2023-11-21T05:36:21;45.83;;;42.17;;
19521;SDS011;9905;52.126;5.596;2023-11-21T05:38:48;45.22;;;41.50;;
19521;SDS011;9905;52.126;5.596;2023-11-21T05:41:15;46.15;;;42.60;;
19521;SDS011;9905;52.126;5.596;2023-11-21T05:43:42;45.13;;;41.80;;
19521;SDS011;9905;52.126;5.596;2023-11-21T05:46:09;45.03;;;41.67;;
19521;SDS011;9905;52.126;5.596;2023-11-21T05:48:36;45.97;;;42.05;;
19521;SDS011;9905;52.126;5.596;2023-11-21T05:51:05;47.03;;;42.97;;
19521;SDS011;9905;52.126;5.596;2023-11-21T05:53:33;46.75;;;42.95;;
19521;SDS011;9905;52.126;5.596;2023-11-21T05:56:00;45.03;;;41.40;;
19521;SDS011;9905;52.126;5.596;2023-11-21T05:58:26;44.97;;;41.20;;
19521;SDS011;9905;52.126;5.596;2023-11-21T06:00:53;43.22;;;39.63;;
19521;SDS011;9905;52.126;5.596;2023-11-21T06:03:20;45.67;;;42.28;;
19521;SDS011;9905;52.126;5.596;2023-11-21T06:05:48;47.45;;;43.85;;
19521;SDS011;9905;52.126;5.596;2023-11-21T06:08:16;47.30;;;43.55;;
19521;SDS011;9905;52.126;5.596;2023-11-21T06:10:43;46.53;;;42.75;;
19521;SDS011;9905;52.126;5.596;2023-11-21T06:13:14;47.40;;;43.47;;
19521;SDS011;9905;52.126;5.596;2023-11-21T06:15:41;47.13;;;43.30;;
19521;SDS011;9905;52.126;5.596;2023-11-21T06:18:08;48.63;;;44.78;;
19521;SDS011;9905;52.126;5.596;2023-11-21T06:20:36;47.50;;;43.60;;
19521;SDS011;9905;52.126;5.596;2023-11-21T06:23:03;49.22;;;45.13;;
19521;SDS011;9905;52.126;5.596;2023-11-21T06:25:32;46.22;;;42.33;;
19521;SDS011;9905;52.126;5.596;2023-11-21T06:28:01;48.35;;;44.03;;
19521;SDS011;9905;52.126;5.596;2023-11-21T06:30:28;47.63;;;43.47;;
19521;SDS011;9905;52.126;5.596;2023-11-21T06:32:55;46.35;;;42.55;;
19521;SDS011;9905;52.126;5.596;2023-11-21T06:35:22;47.95;;;43.58;;
19521;SDS011;9905;52.126;5.596;2023-11-21T06:37:49;46.42;;;42.80;;
19521;SDS011;9905;52.126;5.596;2023-11-21T06:40:16;46.83;;;43.05;;
19521;SDS011;9905;52.126;5.596;2023-11-21T06:42:45;45.92;;;41.97;;
19521;SDS011;9905;52.126;5.596;2023-11-21T06:45:12;46.50;;;42.70;;
19521;SDS011;9905;52.126;5.596;2023-11-21T06:47:40;47.92;;;43.72;;
19521;SDS011;9905;52.126;5.596;2023-11-21T06:50:07;48.67;;;44.55;;
19521;SDS011;9905;52.126;5.596;2023-11-21T06:52:34;46.00;;;42.28;;
19521;SDS011;9905;52.126;5.596;2023-11-21T06:55:01;45.00;;;41.08;;
19521;SDS011;9905;52.126;5.596;2023-11-21T06:57:28;45.80;;;42.38;;
19521;SDS011;9905;52.126;5.596;2023-11-21T06:59:56;45.75;;;42.10;;
19521;SDS011;9905;52.126;5.596;2023-11-21T07:02:23;47.63;;;43.20;;
19521;SDS011;9905;52.126;5.596;2023-11-21T07:04:50;48.95;;;44.65;;
19521;SDS011;9905;52.126;5.596;2023-11-21T07:07:17;47.72;;;43.78;;
19521;SDS011;9905;52.126;5.596;2023-11-21T07:09:44;48.20;;;44.05;;
19521;SDS011;9905;52.126;5.596;2023-11-21T07:12:11;47.78;;;43.72;;
19521;SDS011;9905;52.126;5.596;2023-11-21T07:14:39;46.05;;;42.58;;
19521;SDS011;9905;52.126;5.596;2023-11-21T07:17:09;47.05;;;43.38;;
19521;SDS011;9905;52.126;5.596;2023-11-21T07:19:37;47.72;;;43.65;;
19521;SDS011;9905;52.126;5.596;2023-11-21T07:22:03;47.00;;;43.33;;
19521;SDS011;9905;52.126;5.596;2023-11-21T07:24:30;44.97;;;41.30;;
19521;SDS011;9905;52.126;5.596;2023-11-21T07:26:57;46.47;;;42.78;;
19521;SDS011;9905;52.126;5.596;2023-11-21T07:29:24;46.40;;;42.33;;
19521;SDS011;9905;52.126;5.596;2023-11-21T07:31:51;45.72;;;41.95;;
19521;SDS011;9905;52.126;5.596;2023-11-21T07:34:19;49.00;;;44.80;;
19521;SDS011;9905;52.126;5.596;2023-11-21T07:36:46;48.92;;;44.58;;
19521;SDS011;9905;52.126;5.596;2023-11-21T07:39:13;47.30;;;43.60;;
19521;SDS011;9905;52.126;5.596;2023-11-21T07:41:41;46.95;;;43.28;;
19521;SDS011;9905;52.126;5.596;2023-11-21T07:44:13;46.58;;;42.53;;
19521;SDS011;9905;52.126;5.596;2023-11-21T07:46:40;49.53;;;45.80;;
19521;SDS011;9905;52.126;5.596;2023-11-21T07:49:07;46.33;;;42.40;;
19521;SDS011;9905;52.126;5.596;2023-11-21T07:51:35;47.78;;;43.75;;
19521;SDS011;9905;52.126;5.596;2023-11-21T07:54:02;48.25;;;43.60;;
19521;SDS011;9905;52.126;5.596;2023-11-21T07:56:30;47.10;;;43.40;;
19521;SDS011;9905;52.126;5.596;2023-11-21T07:58:57;46.80;;;42.88;;
19521;SDS011;9905;52.126;5.596;2023-11-21T08:01:24;48.75;;;44.65;;
19521;SDS011;9905;52.126;5.596;2023-11-21T08:03:53;45.13;;;41.65;;
19521;SDS011;9905;52.126;5.596;2023-11-21T08:06:22;47.17;;;43.35;;
19521;SDS011;9905;52.126;5.596;2023-11-21T08:08:50;47.53;;;43.60;;
19521;SDS011;9905;52.126;5.596;2023-11-21T08:11:17;48.05;;;44.08;;
19521;SDS011;9905;52.126;5.596;2023-11-21T08:13:44;49.78;;;45.50;;
19521;SDS011;9905;52.126;5.596;2023-11-21T08:16:11;48.75;;;44.88;;
19521;SDS011;9905;52.126;5.596;2023-11-21T08:18:38;48.95;;;44.80;;
19521;SDS011;9905;52.126;5.596;2023-11-21T08:21:06;49.53;;;45.05;;
19521;SDS011;9905;52.126;5.596;2023-11-21T08:23:33;47.53;;;43.67;;
19521;SDS011;9905;52.126;5.596;2023-11-21T08:26:01;48.53;;;44.45;;
19521;SDS011;9905;52.126;5.596;2023-11-21T08:28:28;48.10;;;43.88;;
19521;SDS011;9905;52.126;5.596;2023-11-21T08:30:55;48.53;;;44.55;;
19521;SDS011;9905;52.126;5.596;2023-11-21T08:33:22;48.42;;;44.15;;
19521;SDS011;9905;52.126;5.596;2023-11-21T08:35:49;49.38;;;45.10;;
19521;SDS011;9905;52.126;5.596;2023-11-21T08:38:15;47.47;;;43.38;;
19521;SDS011;9905;52.126;5.596;2023-11-21T08:40:42;49.10;;;44.17;;
19521;SDS011;9905;52.126;5.596;2023-11-21T08:43:11;49.05;;;44.65;;
19521;SDS011;9905;52.126;5.596;2023-11-21T08:45:39;49.10;;;44.78;;
19521;SDS011;9905;52.126;5.596;2023-11-21T08:48:06;47.88;;;43.35;;
19521;SDS011;9905;52.126;5.596;2023-11-21T08:50:33;48.55;;;44.58;;
19521;SDS011;9905;52.126;5.596;2023-11-21T08:53:00;50.65;;;46.22;;
19521;SDS011;9905;52.126;5.596;2023-11-21T08:55:27;47.85;;;43.60;;
19521;SDS011;9905;52.126;5.596;2023-11-21T08:57:53;49.90;;;45.50;;
19521;SDS011;9905;52.126;5.596;2023-11-21T09:00:21;47.90;;;43.58;;
19521;SDS011;9905;52.126;5.596;2023-11-21T09:02:48;47.63;;;43.78;;
19521;SDS011;9905;52.126;5.596;2023-11-21T09:05:15;49.60;;;44.60;;
19521;SDS011;9905;52.126;5.596;2023-11-21T09:07:42;50.65;;;46.13;;
19521;SDS011;9905;52.126;5.596;2023-11-21T09:10:11;49.85;;;44.85;;
19521;SDS011;9905;52.126;5.596;2023-11-21T09:12:38;50.75;;;45.92;;
19521;SDS011;9905;52.126;5.596;2023-11-21T09:15:05;49.80;;;45.50;;
19521;SDS011;9905;52.126;5.596;2023-11-21T09:17:34;50.08;;;45.85;;
19521;SDS011;9905;52.126;5.596;2023-11-21T09:20:01;52.10;;;47.30;;
19521;SDS011;9905;52.126;5.596;2023-11-21T09:22:30;49.70;;;45.15;;
19521;SDS011;9905;52.126;5.596;2023-11-21T09:24:57;50.70;;;46.10;;
19521;SDS011;9905;52.126;5.596;2023-11-21T09:27:24;50.60;;;45.97;;
19521;SDS011;9905;52.126;5.596;2023-11-21T09:29:51;51.22;;;46.72;;
19521;SDS011;9905;52.126;5.596;2023-11-21T09:32:19;50.28;;;45.58;;
19521;SDS011;9905;52.126;5.596;2023-11-21T09:34:48;49.90;;;45.72;;
19521;SDS011;9905;52.126;5.596;2023-11-21T09:37:15;49.08;;;44.88;;
19521;SDS011;9905;52.126;5.596;2023-11-21T09:39:42;51.88;;;47.25;;
19521;SDS011;9905;52.126;5.596;2023-11-21T09:42:10;48.22;;;44.22;;
19521;SDS011;9905;52.126;5.596;2023-11-21T09:44:42;51.17;;;46.60;;
19521;SDS011;9905;52.126;5.596;2023-11-21T09:47:14;49.55;;;45.33;;
19521;SDS011;9905;52.126;5.596;2023-11-21T09:49:42;48.00;;;43.67;;
19521;SDS011;9905;52.126;5.596;2023-11-21T09:52:15;48.90;;;44.97;;
19521;SDS011;9905;52.126;5.596;2023-11-21T09:54:50;48.78;;;44.78;;
19521;SDS011;9905;52.126;5.596;2023-11-21T09:57:18;49.83;;;45.83;;
19521;SDS011;9905;52.126;5.596;2023-11-21T09:59:46;49.15;;;45.28;;
19521;SDS011;9905;52.126;5.596;2023-11-21T10:02:15;46.67;;;42.95;;
19521;SDS011;9905;52.126;5.596;2023-11-21T10:04:43;47.85;;;44.10;;
19521;SDS011;9905;52.126;5.596;2023-11-21T10:07:10;46.92;;;43.20;;
19521;SDS011;9905;52.126;5.596;2023-11-21T10:09:41;47.03;;;43.25;;
19521;SDS011;9905;52.126;5.596;2023-11-21T10:12:08;47.08;;;43.22;;
19521;SDS011;9905;52.126;5.596;2023-11-21T10:14:37;45.65;;;42.05;;
19521;SDS011;9905;52.126;5.596;2023-11-21T10:17:09;47.38;;;43.58;;
19521;SDS011;9905;52.126;5.596;2023-11-21T10:19:38;45.95;;;42.42;;
19521;SDS011;9905;52.126;5.596;2023-11-21T10:22:05;46.55;;;42.97;;
19521;SDS011;9905;52.126;5.596;2023-11-21T10:24:33;48.13;;;44.25;;
19521;SDS011;9905;52.126;5.596;2023-11-21T10:27:03;45.05;;;41.63;;
19521;SDS011;9905;52.126;5.596;2023-11-21T10:29:30;46.15;;;42.30;;
19521;SDS011;9905;52.126;5.596;2023-11-21T10:32:01;46.13;;;42.45;;
19521;SDS011;9905;52.126;5.596;2023-11-21T10:34:28;48.20;;;44.70;;
19521;SDS011;9905;52.126;5.596;2023-11-21T10:36:55;46.67;;;43.20;;
19521;SDS011;9905;52.126;5.596;2023-11-21T10:39:23;47.85;;;44.22;;
19521;SDS011;9905;52.126;5.596;2023-11-21T10:41:53;48.15;;;44.45;;
19521;SDS011;9905;52.126;5.596;2023-11-21T10:44:22;45.20;;;41.88;;
19521;SDS011;9905;52.126;5.596;2023-11-21T10:46:50;46.63;;;42.95;;
19521;SDS011;9905;52.126;5.596;2023-11-21T10:49:21;45.53;;;41.70;;
19521;SDS011;9905;52.126;5.596;2023-11-21T10:51:49;46.88;;;43.42;;
19521;SDS011;9905;52.126;5.596;2023-11-21T10:54:20;46.63;;;42.88;;
19521;SDS011;9905;52.126;5.596;2023-11-21T10:56:48;44.97;;;41.55;;
19521;SDS011;9905;52.126;5.596;2023-11-21T10:59:16;43.70;;;40.50;;
19521;SDS011;9905;52.126;5.596;2023-11-21T11:01:44;44.72;;;41.45;;
19521;SDS011;9905;52.126;5.596;2023-11-21T11:04:11;41.92;;;39.13;;
19521;SDS011;9905;52.126;5.596;2023-11-21T11:06:42;42.38;;;39.55;;
19521;SDS011;9905;52.126;5.596;2023-11-21T11:09:10;43.20;;;40.35;;
19521;SDS011;9905;52.126;5.596;2023-11-21T11:11:39;42.97;;;39.95;;
19521;SDS011;9905;52.126;5.596;2023-11-21T11:14:06;42.45;;;39.55;;
19521;SDS011;9905;52.126;5.596;2023-11-21T11:16:35;40.92;;;38.22;;
19521;SDS011;9905;52.126;5.596;2023-11-21T11:19:03;41.47;;;38.15;;
19521;SDS011;9905;52.126;5.596;2023-11-21T11:21:32;43.33;;;40.35;;
19521;SDS011;9905;52.126;5.596;2023-11-21T11:24:13;42.33;;;39.08;;
19521;SDS011;9905;52.126;5.596;2023-11-21T11:26:55;42.10;;;38.80;;
19521;SDS011;9905;52.126;5.596;2023-11-21T11:29:27;42.85;;;39.75;;
19521;SDS011;9905;52.126;5.596;2023-11-21T11:32:04;41.80;;;38.97;;
19521;SDS011;9905;52.126;5.596;2023-11-21T11:34:41;41.22;;;38.47;;
19521;SDS011;9905;52.126;5.596;2023-11-21T11:37:15;39.90;;;37.33;;
19521;SDS011;9905;52.126;5.596;2023-11-21T11:39:42;41.05;;;38.20;;
19521;SDS011;9905;52.126;5.596;2023-11-21T11:42:11;41.13;;;38.42;;
19521;SDS011;9905;52.126;5.596;2023-11-21T11:44:49;40.42;;;37.72;;
19521;SDS011;9905;52.126;5.596;2023-11-21T11:47:22;41.65;;;38.75;;
19521;SDS011;9905;52.126;5.596;2023-11-21T11:50:02;43.58;;;39.97;;
19521;SDS011;9905;52.126;5.596;2023-11-21T11:52:35;41.53;;;38.58;;
19521;SDS011;9905;52.126;5.596;2023-11-21T11:55:05;44.65;;;41.53;;
19521;SDS011;9905;52.126;5.596;2023-11-21T11:57:35;44.35;;;41.22;;
19521;SDS011;9905;52.126;5.596;2023-11-21T12:00:07;42.55;;;39.45;;
19521;SDS011;9905;52.126;5.596;2023-11-21T12:02:41;40.75;;;38.08;;
19521;SDS011;9905;52.126;5.596;2023-11-21T12:05:13;41.67;;;38.88;;
19521;SDS011;9905;52.126;5.596;2023-11-21T12:07:41;42.72;;;39.38;;
19521;SDS011;9905;52.126;5.596;2023-11-21T12:10:11;41.17;;;38.28;;
19521;SDS011;9905;52.126;5.596;2023-11-21T12:12:41;43.00;;;39.85;;
19521;SDS011;9905;52.126;5.596;2023-11-21T12:15:09;42.78;;;39.53;;
19521;SDS011;9905;52.126;5.596;2023-11-21T12:17:37;41.05;;;38.25;;
19521;SDS011;9905;52.126;5.596;2023-11-21T12:20:05;41.28;;;38.25;;
19521;SDS011;9905;52.126;5.596;2023-11-21T12:22:40;40.67;;;37.92;;
19521;SDS011;9905;52.126;5.596;2023-11-21T12:25:09;40.33;;;37.55;;
19521;SDS011;9905;52.126;5.596;2023-11-21T12:27:41;39.95;;;37.25;;
19521;SDS011;9905;52.126;5.596;2023-11-21T12:30:09;41.25;;;38.33;;
19521;SDS011;9905;52.126;5.596;2023-11-21T12:32:38;41.70;;;38.88;;
19521;SDS011;9905;52.126;5.596;2023-11-21T12:35:06;39.80;;;36.72;;
19521;SDS011;9905;52.126;5.596;2023-11-21T12:37:34;40.85;;;37.92;;
19521;SDS011;9905;52.126;5.596;2023-11-21T12:40:03;41.00;;;38.00;;
19521;SDS011;9905;52.126;5.596;2023-11-21T12:42:32;41.75;;;38.72;;
19521;SDS011;9905;52.126;5.596;2023-11-21T12:45:09;41.10;;;38.38;;
19521;SDS011;9905;52.126;5.596;2023-11-21T12:47:45;41.42;;;38.42;;
19521;SDS011;9905;52.126;5.596;2023-11-21T12:50:13;40.85;;;37.90;;
19521;SDS011;9905;52.126;5.596;2023-11-21T12:52:41;41.83;;;38.63;;
19521;SDS011;9905;52.126;5.596;2023-11-21T12:55:14;42.63;;;39.78;;
19521;SDS011;9905;52.126;5.596;2023-11-21T12:57:42;43.10;;;40.00;;
19521;SDS011;9905;52.126;5.596;2023-11-21T13:00:12;41.65;;;39.05;;
19521;SDS011;9905;52.126;5.596;2023-11-21T13:02:51;42.58;;;39.80;;
19521;SDS011;9905;52.126;5.596;2023-11-21T13:05:25;44.25;;;41.17;;
19521;SDS011;9905;52.126;5.596;2023-11-21T13:07:53;43.88;;;40.55;;
19521;SDS011;9905;52.126;5.596;2023-11-21T13:10:24;42.58;;;39.58;;
19521;SDS011;9905;52.126;5.596;2023-11-21T13:12:52;41.20;;;38.45;;
19521;SDS011;9905;52.126;5.596;2023-11-21T13:15:20;41.58;;;38.67;;
19521;SDS011;9905;52.126;5.596;2023-11-21T13:17:46;41.60;;;38.53;;
19521;SDS011;9905;52.126;5.596;2023-11-21T13:20:15;40.50;;;37.55;;
19521;SDS011;9905;52.126;5.596;2023-11-21T13:22:48;42.65;;;39.72;;
19521;SDS011;9905;52.126;5.596;2023-11-21T13:25:16;41.70;;;39.03;;
19521;SDS011;9905;52.126;5.596;2023-11-21T13:27:46;40.00;;;37.38;;
19521;SDS011;9905;52.126;5.596;2023-11-21T13:30:13;39.03;;;36.42;;
19521;SDS011;9905;52.126;5.596;2023-11-21T13:32:48;38.25;;;36.05;;
19521;SDS011;9905;52.126;5.596;2023-11-21T13:35:16;37.70;;;35.50;;
19521;SDS011;9905;52.126;5.596;2023-11-21T13:37:47;34.97;;;33.10;;
19521;SDS011;9905;52.126;5.596;2023-11-21T13:40:18;35.13;;;33.03;;
19521;SDS011;9905;52.126;5.596;2023-11-21T13:42:49;33.60;;;31.80;;
19521;SDS011;9905;52.126;5.596;2023-11-21T13:45:18;32.75;;;31.05;;
19521;SDS011;9905;52.126;5.596;2023-11-21T13:47:47;33.65;;;31.85;;
19521;SDS011;9905;52.126;5.596;2023-11-21T13:50:16;31.75;;;30.05;;
19521;SDS011;9905;52.126;5.596;2023-11-21T13:52:47;34.85;;;32.72;;
19521;SDS011;9905;52.126;5.596;2023-11-21T13:55:16;34.30;;;32.30;;
19521;SDS011;9905;52.126;5.596;2023-11-21T13:57:43;32.83;;;30.92;;
19521;SDS011;9905;52.126;5.596;2023-11-21T14:00:14;34.15;;;32.00;;
19521;SDS011;9905;52.126;5.596;2023-11-21T14:03:01;33.22;;;31.17;;
19521;SDS011;9905;52.126;5.596;2023-11-21T14:05:33;35.08;;;32.45;;
19521;SDS011;9905;52.126;5.596;2023-11-21T14:08:00;32.28;;;30.23;;
19521;SDS011;9905;52.126;5.596;2023-11-21T14:10:29;32.05;;;30.05;;
19521;SDS011;9905;52.126;5.596;2023-11-21T14:13:05;33.53;;;31.27;;
19521;SDS011;9905;52.126;5.596;2023-11-21T14:15:33;32.65;;;30.60;;
19521;SDS011;9905;52.126;5.596;2023-11-21T14:18:03;33.80;;;31.48;;
19521;SDS011;9905;52.126;5.596;2023-11-21T14:20:32;34.25;;;31.67;;
19521;SDS011;9905;52.126;5.596;2023-11-21T14:23:01;32.47;;;30.05;;
19521;SDS011;9905;52.126;5.596;2023-11-21T14:25:28;33.58;;;31.08;;
19521;SDS011;9905;52.126;5.596;2023-11-21T14:27:54;33.85;;;31.40;;
19521;SDS011;9905;52.126;5.596;2023-11-21T14:30:22;33.70;;;31.15;;
19521;SDS011;9905;52.126;5.596;2023-11-21T14:32:51;33.40;;;30.92;;
19521;SDS011;9905;52.126;5.596;2023-11-21T14:35:18;34.58;;;31.73;;
19521;SDS011;9905;52.126;5.596;2023-11-21T14:37:45;34.65;;;31.95;;
19521;SDS011;9905;52.126;5.596;2023-11-21T14:40:12;34.42;;;31.60;;